sensor_id;sensor_type;location;lat;lon;timestamp;P1;durP1;ratioP1;P2;durP2;ratioP2
34459;SDS011;20704;51.260;22.558;2022-08-25T00:01:56;15.88;;;5.80;;
34459;SDS011;20704;51.260;22.558;2022-08-25T00:04:31;16.13;;;5.40;;
34459;SDS011;20704;51.260;22.558;2022-08-25T00:06:57;12.65;;;5.60;;
34459;SDS011;20704;51.260;22.558;2022-08-25T00:09:24;17.63;;;4.43;;
34459;SDS011;20704;51.260;22.558;2022-08-25T00:11:52;13.40;;;5.60;;
34459;SDS011;20704;51.260;22.558;2022-08-25T00:14:21;7.75;;;4.10;;
34459;SDS011;20704;51.260;22.558;2022-08-25T00:16:53;15.68;;;6.05;;
34459;SDS011;20704;51.260;22.558;2022-08-25T00:19:23;10.10;;;6.13;;
34459;SDS011;20704;51.260;22.558;2022-08-25T00:21:52;13.38;;;4.80;;
34459;SDS011;20704;51.260;22.558;2022-08-25T00:24:19;12.32;;;4.95;;
34459;SDS011;20704;51.260;22.558;2022-08-25T00:26:46;12.13;;;5.97;;
34459;SDS011;20704;51.260;22.558;2022-08-25T00:29:14;12.05;;;4.57;;
34459;SDS011;20704;51.260;22.558;2022-08-25T00:31:41;11.23;;;4.97;;
34459;SDS011;20704;51.260;22.558;2022-08-25T00:34:09;14.65;;;5.63;;
34459;SDS011;20704;51.260;22.558;2022-08-25T00:36:39;8.00;;;4.57;;
34459;SDS011;20704;51.260;22.558;2022-08-25T00:39:06;11.27;;;4.90;;
34459;SDS011;20704;51.260;22.558;2022-08-25T00:41:33;13.20;;;5.50;;
34459;SDS011;20704;51.260;22.558;2022-08-25T00:44:01;9.05;;;4.10;;
34459;SDS011;20704;51.260;22.558;2022-08-25T00:46:31;16.27;;;4.97;;
34459;SDS011;20704;51.260;22.558;2022-08-25T00:49:02;18.98;;;5.13;;
34459;SDS011;20704;51.260;22.558;2022-08-25T00:54:28;11.55;;;5.03;;
34459;SDS011;20704;51.260;22.558;2022-08-25T00:57:00;10.23;;;6.03;;
34459;SDS011;20704;51.260;22.558;2022-08-25T00:59:29;8.40;;;4.73;;
34459;SDS011;20704;51.260;22.558;2022-08-25T01:01:55;9.65;;;4.28;;
34459;SDS011;20704;51.260;22.558;2022-08-25T01:04:21;10.45;;;4.85;;
34459;SDS011;20704;51.260;22.558;2022-08-25T01:06:48;17.55;;;5.57;;
34459;SDS011;20704;51.260;22.558;2022-08-25T01:09:14;11.45;;;5.65;;
34459;SDS011;20704;51.260;22.558;2022-08-25T01:11:41;12.38;;;5.93;;
34459;SDS011;20704;51.260;22.558;2022-08-25T01:14:09;15.63;;;5.28;;
34459;SDS011;20704;51.260;22.558;2022-08-25T01:16:37;10.30;;;5.22;;
34459;SDS011;20704;51.260;22.558;2022-08-25T01:19:05;7.75;;;5.35;;
34459;SDS011;20704;51.260;22.558;2022-08-25T01:21:36;10.07;;;5.53;;
34459;SDS011;20704;51.260;22.558;2022-08-25T01:24:09;11.13;;;5.10;;
34459;SDS011;20704;51.260;22.558;2022-08-25T01:26:38;13.80;;;6.28;;
34459;SDS011;20704;51.260;22.558;2022-08-25T01:29:05;10.02;;;5.20;;
34459;SDS011;20704;51.260;22.558;2022-08-25T01:31:48;13.55;;;5.68;;
34459;SDS011;20704;51.260;22.558;2022-08-25T01:34:18;10.18;;;5.35;;
34459;SDS011;20704;51.260;22.558;2022-08-25T01:36:44;13.30;;;5.95;;
34459;SDS011;20704;51.260;22.558;2022-08-25T01:39:10;12.13;;;5.60;;
34459;SDS011;20704;51.260;22.558;2022-08-25T01:44:19;13.65;;;5.50;;
34459;SDS011;20704;51.260;22.558;2022-08-25T01:46:45;12.32;;;5.82;;
34459;SDS011;20704;51.260;22.558;2022-08-25T01:49:11;16.98;;;5.50;;
34459;SDS011;20704;51.260;22.558;2022-08-25T01:51:48;15.63;;;4.97;;
34459;SDS011;20704;51.260;22.558;2022-08-25T01:54:18;14.20;;;6.00;;
34459;SDS011;20704;51.260;22.558;2022-08-25T01:56:44;12.63;;;5.78;;
34459;SDS011;20704;51.260;22.558;2022-08-25T01:59:10;9.85;;;4.93;;
34459;SDS011;20704;51.260;22.558;2022-08-25T02:01:40;12.82;;;5.55;;
34459;SDS011;20704;51.260;22.558;2022-08-25T02:04:06;16.38;;;5.97;;
34459;SDS011;20704;51.260;22.558;2022-08-25T02:06:33;9.52;;;5.28;;
34459;SDS011;20704;51.260;22.558;2022-08-25T02:09:01;19.58;;;5.32;;
34459;SDS011;20704;51.260;22.558;2022-08-25T02:11:37;14.40;;;5.57;;
34459;SDS011;20704;51.260;22.558;2022-08-25T02:14:05;16.20;;;5.72;;
34459;SDS011;20704;51.260;22.558;2022-08-25T02:16:32;12.77;;;5.53;;
34459;SDS011;20704;51.260;22.558;2022-08-25T02:19:00;9.98;;;5.43;;
34459;SDS011;20704;51.260;22.558;2022-08-25T02:21:26;14.85;;;6.30;;
34459;SDS011;20704;51.260;22.558;2022-08-25T02:23:52;10.43;;;6.32;;
34459;SDS011;20704;51.260;22.558;2022-08-25T02:26:19;12.88;;;6.05;;
34459;SDS011;20704;51.260;22.558;2022-08-25T02:28:45;19.83;;;6.65;;
34459;SDS011;20704;51.260;22.558;2022-08-25T02:31:12;9.63;;;5.60;;
34459;SDS011;20704;51.260;22.558;2022-08-25T02:33:39;12.95;;;5.75;;
34459;SDS011;20704;51.260;22.558;2022-08-25T02:36:05;12.95;;;6.10;;
34459;SDS011;20704;51.260;22.558;2022-08-25T02:38:32;9.32;;;5.93;;
34459;SDS011;20704;51.260;22.558;2022-08-25T02:40:59;13.13;;;6.85;;
34459;SDS011;20704;51.260;22.558;2022-08-25T02:43:26;11.63;;;5.75;;
34459;SDS011;20704;51.260;22.558;2022-08-25T02:45:53;22.38;;;6.07;;
34459;SDS011;20704;51.260;22.558;2022-08-25T02:48:20;15.00;;;6.13;;
34459;SDS011;20704;51.260;22.558;2022-08-25T02:50:48;13.00;;;6.47;;
34459;SDS011;20704;51.260;22.558;2022-08-25T02:53:17;10.82;;;6.57;;
34459;SDS011;20704;51.260;22.558;2022-08-25T02:55:44;17.02;;;5.97;;
34459;SDS011;20704;51.260;22.558;2022-08-25T02:58:10;12.65;;;5.50;;
34459;SDS011;20704;51.260;22.558;2022-08-25T03:00:36;12.13;;;6.13;;
34459;SDS011;20704;51.260;22.558;2022-08-25T03:03:03;14.10;;;6.18;;
34459;SDS011;20704;51.260;22.558;2022-08-25T03:05:30;12.05;;;6.03;;
34459;SDS011;20704;51.260;22.558;2022-08-25T03:07:56;13.52;;;6.75;;
34459;SDS011;20704;51.260;22.558;2022-08-25T03:10:22;15.15;;;5.90;;
34459;SDS011;20704;51.260;22.558;2022-08-25T03:12:48;15.98;;;6.40;;
34459;SDS011;20704;51.260;22.558;2022-08-25T03:15:15;14.68;;;6.10;;
34459;SDS011;20704;51.260;22.558;2022-08-25T03:17:42;16.70;;;5.65;;
34459;SDS011;20704;51.260;22.558;2022-08-25T03:20:09;11.25;;;6.63;;
34459;SDS011;20704;51.260;22.558;2022-08-25T03:22:36;15.10;;;5.60;;
34459;SDS011;20704;51.260;22.558;2022-08-25T03:25:02;26.08;;;7.30;;
34459;SDS011;20704;51.260;22.558;2022-08-25T03:27:48;17.60;;;6.70;;
34459;SDS011;20704;51.260;22.558;2022-08-25T03:30:15;30.42;;;6.60;;
34459;SDS011;20704;51.260;22.558;2022-08-25T03:32:41;16.67;;;7.07;;
34459;SDS011;20704;51.260;22.558;2022-08-25T03:35:08;15.23;;;7.57;;
34459;SDS011;20704;51.260;22.558;2022-08-25T03:37:35;19.35;;;7.03;;
34459;SDS011;20704;51.260;22.558;2022-08-25T03:40:02;10.98;;;6.82;;
34459;SDS011;20704;51.260;22.558;2022-08-25T03:42:30;23.98;;;7.65;;
34459;SDS011;20704;51.260;22.558;2022-08-25T03:44:56;16.35;;;6.90;;
34459;SDS011;20704;51.260;22.558;2022-08-25T03:47:23;13.90;;;7.20;;
34459;SDS011;20704;51.260;22.558;2022-08-25T03:49:50;18.90;;;7.05;;
34459;SDS011;20704;51.260;22.558;2022-08-25T03:52:17;29.80;;;7.55;;
34459;SDS011;20704;51.260;22.558;2022-08-25T03:54:43;15.35;;;6.35;;
34459;SDS011;20704;51.260;22.558;2022-08-25T03:57:09;18.33;;;6.15;;
34459;SDS011;20704;51.260;22.558;2022-08-25T03:59:36;14.38;;;6.57;;
34459;SDS011;20704;51.260;22.558;2022-08-25T04:02:05;13.10;;;6.17;;
34459;SDS011;20704;51.260;22.558;2022-08-25T04:04:32;13.23;;;6.40;;
34459;SDS011;20704;51.260;22.558;2022-08-25T04:06:59;16.92;;;6.95;;
34459;SDS011;20704;51.260;22.558;2022-08-25T04:09:25;13.38;;;6.68;;
34459;SDS011;20704;51.260;22.558;2022-08-25T04:11:52;21.08;;;6.43;;
34459;SDS011;20704;51.260;22.558;2022-08-25T04:14:18;9.60;;;5.90;;
34459;SDS011;20704;51.260;22.558;2022-08-25T04:16:45;17.05;;;6.63;;
34459;SDS011;20704;51.260;22.558;2022-08-25T04:19:11;22.55;;;7.43;;
34459;SDS011;20704;51.260;22.558;2022-08-25T04:21:38;12.80;;;5.97;;
34459;SDS011;20704;51.260;22.558;2022-08-25T04:24:05;12.77;;;6.03;;
34459;SDS011;20704;51.260;22.558;2022-08-25T04:26:43;17.95;;;6.65;;
34459;SDS011;20704;51.260;22.558;2022-08-25T04:29:13;14.05;;;6.18;;
34459;SDS011;20704;51.260;22.558;2022-08-25T04:31:42;11.17;;;5.87;;
34459;SDS011;20704;51.260;22.558;2022-08-25T04:34:11;12.35;;;6.63;;
34459;SDS011;20704;51.260;22.558;2022-08-25T04:36:38;8.68;;;5.45;;
34459;SDS011;20704;51.260;22.558;2022-08-25T04:39:05;11.98;;;5.35;;
34459;SDS011;20704;51.260;22.558;2022-08-25T04:41:31;15.00;;;6.82;;
34459;SDS011;20704;51.260;22.558;2022-08-25T04:43:59;15.18;;;6.90;;
34459;SDS011;20704;51.260;22.558;2022-08-25T04:46:27;12.23;;;6.43;;
34459;SDS011;20704;51.260;22.558;2022-08-25T04:48:57;12.57;;;5.85;;
34459;SDS011;20704;51.260;22.558;2022-08-25T04:51:26;10.50;;;5.80;;
34459;SDS011;20704;51.260;22.558;2022-08-25T04:53:54;11.50;;;6.40;;
34459;SDS011;20704;51.260;22.558;2022-08-25T04:56:22;13.48;;;6.05;;
34459;SDS011;20704;51.260;22.558;2022-08-25T04:58:50;11.43;;;5.88;;
34459;SDS011;20704;51.260;22.558;2022-08-25T05:01:18;13.63;;;5.75;;
34459;SDS011;20704;51.260;22.558;2022-08-25T05:03:46;13.48;;;5.90;;
34459;SDS011;20704;51.260;22.558;2022-08-25T05:06:17;9.43;;;6.28;;
34459;SDS011;20704;51.260;22.558;2022-08-25T05:08:43;16.88;;;6.35;;
34459;SDS011;20704;51.260;22.558;2022-08-25T05:11:10;12.73;;;6.07;;
34459;SDS011;20704;51.260;22.558;2022-08-25T05:13:39;15.00;;;5.47;;
34459;SDS011;20704;51.260;22.558;2022-08-25T05:16:05;20.00;;;6.55;;
34459;SDS011;20704;51.260;22.558;2022-08-25T05:18:32;18.08;;;6.60;;
34459;SDS011;20704;51.260;22.558;2022-08-25T05:21:03;19.35;;;7.53;;
34459;SDS011;20704;51.260;22.558;2022-08-25T05:23:32;14.93;;;6.28;;
34459;SDS011;20704;51.260;22.558;2022-08-25T05:26:03;14.13;;;6.22;;
34459;SDS011;20704;51.260;22.558;2022-08-25T05:28:32;12.77;;;5.80;;
34459;SDS011;20704;51.260;22.558;2022-08-25T05:30:59;9.95;;;5.43;;
34459;SDS011;20704;51.260;22.558;2022-08-25T05:33:27;15.57;;;6.20;;
34459;SDS011;20704;51.260;22.558;2022-08-25T05:35:54;17.50;;;7.18;;
34459;SDS011;20704;51.260;22.558;2022-08-25T05:38:20;14.07;;;5.95;;
34459;SDS011;20704;51.260;22.558;2022-08-25T05:40:46;14.07;;;6.07;;
34459;SDS011;20704;51.260;22.558;2022-08-25T05:43:12;19.15;;;6.45;;
34459;SDS011;20704;51.260;22.558;2022-08-25T05:45:40;22.67;;;6.63;;
34459;SDS011;20704;51.260;22.558;2022-08-25T05:48:06;24.30;;;6.57;;
34459;SDS011;20704;51.260;22.558;2022-08-25T05:50:33;16.63;;;6.68;;
34459;SDS011;20704;51.260;22.558;2022-08-25T05:52:59;15.23;;;7.18;;
34459;SDS011;20704;51.260;22.558;2022-08-25T05:55:25;15.52;;;5.97;;
34459;SDS011;20704;51.260;22.558;2022-08-25T05:57:51;18.83;;;6.25;;
34459;SDS011;20704;51.260;22.558;2022-08-25T06:00:19;17.30;;;6.47;;
34459;SDS011;20704;51.260;22.558;2022-08-25T06:02:45;10.38;;;6.03;;
34459;SDS011;20704;51.260;22.558;2022-08-25T06:07:42;13.63;;;6.53;;
34459;SDS011;20704;51.260;22.558;2022-08-25T06:10:09;10.60;;;5.15;;
34459;SDS011;20704;51.260;22.558;2022-08-25T06:12:36;12.63;;;5.57;;
34459;SDS011;20704;51.260;22.558;2022-08-25T06:15:03;13.77;;;6.70;;
34459;SDS011;20704;51.260;22.558;2022-08-25T06:17:30;16.52;;;6.45;;
34459;SDS011;20704;51.260;22.558;2022-08-25T06:19:56;12.48;;;5.97;;
34459;SDS011;20704;51.260;22.558;2022-08-25T06:22:23;9.45;;;5.28;;
34459;SDS011;20704;51.260;22.558;2022-08-25T06:24:51;14.07;;;6.00;;
34459;SDS011;20704;51.260;22.558;2022-08-25T06:27:18;14.25;;;5.65;;
34459;SDS011;20704;51.260;22.558;2022-08-25T06:29:44;13.15;;;4.53;;
34459;SDS011;20704;51.260;22.558;2022-08-25T06:32:10;21.02;;;5.95;;
34459;SDS011;20704;51.260;22.558;2022-08-25T06:34:36;19.65;;;6.70;;
34459;SDS011;20704;51.260;22.558;2022-08-25T06:37:02;14.43;;;5.95;;
34459;SDS011;20704;51.260;22.558;2022-08-25T06:39:28;14.15;;;5.07;;
34459;SDS011;20704;51.260;22.558;2022-08-25T06:41:55;8.38;;;4.70;;
34459;SDS011;20704;51.260;22.558;2022-08-25T06:44:24;27.95;;;5.63;;
34459;SDS011;20704;51.260;22.558;2022-08-25T06:46:52;17.80;;;4.80;;
34459;SDS011;20704;51.260;22.558;2022-08-25T06:49:18;15.82;;;5.60;;
34459;SDS011;20704;51.260;22.558;2022-08-25T06:51:45;13.35;;;5.75;;
34459;SDS011;20704;51.260;22.558;2022-08-25T06:54:11;8.20;;;4.65;;
34459;SDS011;20704;51.260;22.558;2022-08-25T06:56:40;14.43;;;6.50;;
34459;SDS011;20704;51.260;22.558;2022-08-25T06:59:07;15.05;;;5.00;;
34459;SDS011;20704;51.260;22.558;2022-08-25T07:01:34;19.60;;;4.97;;
34459;SDS011;20704;51.260;22.558;2022-08-25T07:04:01;23.48;;;5.88;;
34459;SDS011;20704;51.260;22.558;2022-08-25T07:06:29;19.85;;;5.47;;
34459;SDS011;20704;51.260;22.558;2022-08-25T07:08:57;19.90;;;5.60;;
34459;SDS011;20704;51.260;22.558;2022-08-25T07:11:23;18.23;;;5.35;;
34459;SDS011;20704;51.260;22.558;2022-08-25T07:13:50;10.32;;;4.38;;
34459;SDS011;20704;51.260;22.558;2022-08-25T07:16:17;16.02;;;6.20;;
34459;SDS011;20704;51.260;22.558;2022-08-25T07:18:45;22.67;;;5.28;;
34459;SDS011;20704;51.260;22.558;2022-08-25T07:21:12;23.75;;;6.03;;
34459;SDS011;20704;51.260;22.558;2022-08-25T07:23:41;14.70;;;4.30;;
34459;SDS011;20704;51.260;22.558;2022-08-25T07:26:22;26.42;;;5.10;;
34459;SDS011;20704;51.260;22.558;2022-08-25T07:28:50;19.10;;;5.38;;
34459;SDS011;20704;51.260;22.558;2022-08-25T07:31:17;12.70;;;5.45;;
34459;SDS011;20704;51.260;22.558;2022-08-25T07:33:43;10.43;;;4.93;;
34459;SDS011;20704;51.260;22.558;2022-08-25T07:36:28;19.55;;;5.30;;
34459;SDS011;20704;51.260;22.558;2022-08-25T07:38:56;9.98;;;5.15;;
34459;SDS011;20704;51.260;22.558;2022-08-25T07:41:23;13.27;;;5.10;;
34459;SDS011;20704;51.260;22.558;2022-08-25T07:43:51;12.65;;;4.78;;
34459;SDS011;20704;51.260;22.558;2022-08-25T07:46:17;16.02;;;5.50;;
34459;SDS011;20704;51.260;22.558;2022-08-25T07:48:43;15.52;;;5.93;;
34459;SDS011;20704;51.260;22.558;2022-08-25T07:51:11;19.55;;;6.35;;
34459;SDS011;20704;51.260;22.558;2022-08-25T07:53:38;7.87;;;3.93;;
34459;SDS011;20704;51.260;22.558;2022-08-25T07:56:09;11.82;;;4.72;;
34459;SDS011;20704;51.260;22.558;2022-08-25T07:58:40;12.45;;;4.65;;
34459;SDS011;20704;51.260;22.558;2022-08-25T08:01:15;12.55;;;4.78;;
34459;SDS011;20704;51.260;22.558;2022-08-25T08:03:43;12.55;;;5.55;;
34459;SDS011;20704;51.260;22.558;2022-08-25T08:06:10;18.85;;;6.28;;
34459;SDS011;20704;51.260;22.558;2022-08-25T08:08:39;14.48;;;4.65;;
34459;SDS011;20704;51.260;22.558;2022-08-25T08:11:17;12.55;;;4.50;;
34459;SDS011;20704;51.260;22.558;2022-08-25T08:13:50;11.43;;;4.28;;
34459;SDS011;20704;51.260;22.558;2022-08-25T08:16:17;13.77;;;4.00;;
34459;SDS011;20704;51.260;22.558;2022-08-25T08:18:44;8.95;;;4.40;;
34459;SDS011;20704;51.260;22.558;2022-08-25T08:21:15;10.43;;;3.88;;
34459;SDS011;20704;51.260;22.558;2022-08-25T08:23:42;12.88;;;3.53;;
34459;SDS011;20704;51.260;22.558;2022-08-25T08:26:08;7.70;;;3.63;;
34459;SDS011;20704;51.260;22.558;2022-08-25T08:28:35;7.82;;;3.00;;
34459;SDS011;20704;51.260;22.558;2022-08-25T08:31:02;11.48;;;3.90;;
34459;SDS011;20704;51.260;22.558;2022-08-25T08:33:28;10.80;;;3.08;;
34459;SDS011;20704;51.260;22.558;2022-08-25T08:35:59;9.82;;;3.30;;
34459;SDS011;20704;51.260;22.558;2022-08-25T08:38:28;7.97;;;2.60;;
34459;SDS011;20704;51.260;22.558;2022-08-25T08:40:59;7.70;;;3.22;;
34459;SDS011;20704;51.260;22.558;2022-08-25T08:44:06;13.20;;;3.10;;
34459;SDS011;20704;51.260;22.558;2022-08-25T08:49:34;7.90;;;2.47;;
34459;SDS011;20704;51.260;22.558;2022-08-25T08:52:10;11.30;;;2.55;;
34459;SDS011;20704;51.260;22.558;2022-08-25T08:54:41;12.10;;;2.70;;
34459;SDS011;20704;51.260;22.558;2022-08-25T08:57:14;17.13;;;2.53;;
34459;SDS011;20704;51.260;22.558;2022-08-25T08:59:47;13.13;;;2.53;;
34459;SDS011;20704;51.260;22.558;2022-08-25T09:02:18;8.15;;;2.42;;
34459;SDS011;20704;51.260;22.558;2022-08-25T09:05:03;9.30;;;2.92;;
34459;SDS011;20704;51.260;22.558;2022-08-25T09:07:38;17.42;;;2.60;;
34459;SDS011;20704;51.260;22.558;2022-08-25T09:10:09;8.07;;;2.30;;
34459;SDS011;20704;51.260;22.558;2022-08-25T09:12:37;12.48;;;2.78;;
34459;SDS011;20704;51.260;22.558;2022-08-25T09:15:31;5.32;;;1.90;;
34459;SDS011;20704;51.260;22.558;2022-08-25T09:18:34;13.30;;;2.70;;
34459;SDS011;20704;51.260;22.558;2022-08-25T09:24:12;7.72;;;2.33;;
34459;SDS011;20704;51.260;22.558;2022-08-25T09:32:41;13.57;;;2.58;;
34459;SDS011;20704;51.260;22.558;2022-08-25T09:35:29;8.60;;;2.97;;
34459;SDS011;20704;51.260;22.558;2022-08-25T09:38:01;10.18;;;2.33;;
34459;SDS011;20704;51.260;22.558;2022-08-25T09:40:30;7.72;;;2.80;;
34459;SDS011;20704;51.260;22.558;2022-08-25T09:42:59;7.00;;;1.55;;
34459;SDS011;20704;51.260;22.558;2022-08-25T09:45:35;7.87;;;2.07;;
34459;SDS011;20704;51.260;22.558;2022-08-25T09:53:50;5.77;;;2.17;;
34459;SDS011;20704;51.260;22.558;2022-08-25T09:56:17;21.27;;;2.53;;
34459;SDS011;20704;51.260;22.558;2022-08-25T09:58:46;6.53;;;1.67;;
34459;SDS011;20704;51.260;22.558;2022-08-25T10:01:17;14.45;;;2.47;;
34459;SDS011;20704;51.260;22.558;2022-08-25T10:03:55;8.85;;;1.85;;
34459;SDS011;20704;51.260;22.558;2022-08-25T10:06:24;13.65;;;2.58;;
34459;SDS011;20704;51.260;22.558;2022-08-25T10:09:02;10.02;;;2.38;;
34459;SDS011;20704;51.260;22.558;2022-08-25T10:11:32;13.60;;;1.92;;
34459;SDS011;20704;51.260;22.558;2022-08-25T10:14:14;9.05;;;2.13;;
34459;SDS011;20704;51.260;22.558;2022-08-25T10:19:38;6.38;;;1.40;;
34459;SDS011;20704;51.260;22.558;2022-08-25T10:22:06;10.38;;;1.75;;
34459;SDS011;20704;51.260;22.558;2022-08-25T10:24:34;10.05;;;2.20;;
34459;SDS011;20704;51.260;22.558;2022-08-25T10:32:14;9.55;;;2.00;;
34459;SDS011;20704;51.260;22.558;2022-08-25T10:39:41;9.60;;;1.67;;
34459;SDS011;20704;51.260;22.558;2022-08-25T10:42:21;21.33;;;3.45;;
34459;SDS011;20704;51.260;22.558;2022-08-25T10:48:09;7.00;;;2.33;;
34459;SDS011;20704;51.260;22.558;2022-08-25T10:58:31;9.60;;;1.77;;
34459;SDS011;20704;51.260;22.558;2022-08-25T11:01:08;7.45;;;2.58;;
34459;SDS011;20704;51.260;22.558;2022-08-25T11:06:19;6.43;;;1.87;;
34459;SDS011;20704;51.260;22.558;2022-08-25T11:09:13;15.60;;;1.95;;
34459;SDS011;20704;51.260;22.558;2022-08-25T11:11:46;11.82;;;2.20;;
34459;SDS011;20704;51.260;22.558;2022-08-25T11:17:04;10.25;;;2.50;;
34459;SDS011;20704;51.260;22.558;2022-08-25T11:19:35;8.50;;;1.73;;
34459;SDS011;20704;51.260;22.558;2022-08-25T11:27:19;8.02;;;1.67;;
34459;SDS011;20704;51.260;22.558;2022-08-25T11:29:52;6.47;;;2.17;;
34459;SDS011;20704;51.260;22.558;2022-08-25T11:32:32;3.63;;;2.17;;
34459;SDS011;20704;51.260;22.558;2022-08-25T11:35:01;4.88;;;1.50;;
34459;SDS011;20704;51.260;22.558;2022-08-25T11:37:33;7.68;;;2.17;;
34459;SDS011;20704;51.260;22.558;2022-08-25T11:50:29;3.20;;;1.67;;
34459;SDS011;20704;51.260;22.558;2022-08-25T11:56:01;7.28;;;2.08;;
34459;SDS011;20704;51.260;22.558;2022-08-25T11:58:49;9.32;;;1.88;;
34459;SDS011;20704;51.260;22.558;2022-08-25T12:12:27;7.03;;;1.95;;
34459;SDS011;20704;51.260;22.558;2022-08-25T12:23:35;9.48;;;2.33;;
34459;SDS011;20704;51.260;22.558;2022-08-25T12:31:23;6.55;;;1.50;;
34459;SDS011;20704;51.260;22.558;2022-08-25T12:34:30;11.88;;;2.28;;
34459;SDS011;20704;51.260;22.558;2022-08-25T12:37:13;12.40;;;1.85;;
34459;SDS011;20704;51.260;22.558;2022-08-25T12:40:03;11.10;;;1.75;;
34459;SDS011;20704;51.260;22.558;2022-08-25T12:42:37;5.18;;;1.65;;
34459;SDS011;20704;51.260;22.558;2022-08-25T12:45:12;8.65;;;1.50;;
34459;SDS011;20704;51.260;22.558;2022-08-25T12:47:46;13.23;;;1.90;;
34459;SDS011;20704;51.260;22.558;2022-08-25T12:50:27;5.10;;;1.90;;
34459;SDS011;20704;51.260;22.558;2022-08-25T12:55:52;5.38;;;2.20;;
34459;SDS011;20704;51.260;22.558;2022-08-25T12:58:27;15.77;;;2.20;;
34459;SDS011;20704;51.260;22.558;2022-08-25T13:04:13;14.90;;;1.60;;
34459;SDS011;20704;51.260;22.558;2022-08-25T13:16:02;3.63;;;1.45;;
34459;SDS011;20704;51.260;22.558;2022-08-25T13:18:32;6.68;;;1.60;;
34459;SDS011;20704;51.260;22.558;2022-08-25T13:23:40;8.50;;;1.95;;
34459;SDS011;20704;51.260;22.558;2022-08-25T13:26:43;18.70;;;2.40;;
34459;SDS011;20704;51.260;22.558;2022-08-25T13:34:04;7.68;;;1.48;;
34459;SDS011;20704;51.260;22.558;2022-08-25T13:36:35;6.47;;;2.05;;
34459;SDS011;20704;51.260;22.558;2022-08-25T13:39:26;4.22;;;1.90;;
34459;SDS011;20704;51.260;22.558;2022-08-25T13:41:55;11.70;;;2.00;;
34459;SDS011;20704;51.260;22.558;2022-08-25T13:44:26;4.65;;;1.48;;
34459;SDS011;20704;51.260;22.558;2022-08-25T13:47:04;8.07;;;1.80;;
34459;SDS011;20704;51.260;22.558;2022-08-25T13:49:33;3.58;;;1.83;;
34459;SDS011;20704;51.260;22.558;2022-08-25T13:51:59;8.38;;;2.15;;
34459;SDS011;20704;51.260;22.558;2022-08-25T13:54:28;7.47;;;1.80;;
34459;SDS011;20704;51.260;22.558;2022-08-25T13:57:04;11.30;;;2.00;;
34459;SDS011;20704;51.260;22.558;2022-08-25T13:59:35;12.75;;;2.40;;
34459;SDS011;20704;51.260;22.558;2022-08-25T14:02:04;12.60;;;1.88;;
34459;SDS011;20704;51.260;22.558;2022-08-25T14:04:32;5.38;;;1.48;;
34459;SDS011;20704;51.260;22.558;2022-08-25T14:12:25;7.32;;;1.50;;
34459;SDS011;20704;51.260;22.558;2022-08-25T14:14:56;6.85;;;1.80;;
34459;SDS011;20704;51.260;22.558;2022-08-25T14:17:28;15.85;;;2.17;;
34459;SDS011;20704;51.260;22.558;2022-08-25T14:19:55;7.90;;;2.17;;
34459;SDS011;20704;51.260;22.558;2022-08-25T14:22:22;6.70;;;1.70;;
34459;SDS011;20704;51.260;22.558;2022-08-25T14:24:48;14.60;;;2.00;;
34459;SDS011;20704;51.260;22.558;2022-08-25T14:27:17;9.73;;;1.87;;
34459;SDS011;20704;51.260;22.558;2022-08-25T14:29:43;2.72;;;1.40;;
34459;SDS011;20704;51.260;22.558;2022-08-25T14:32:10;9.23;;;1.83;;
34459;SDS011;20704;51.260;22.558;2022-08-25T14:34:37;9.65;;;2.15;;
34459;SDS011;20704;51.260;22.558;2022-08-25T14:37:05;5.60;;;2.00;;
34459;SDS011;20704;51.260;22.558;2022-08-25T14:39:39;10.90;;;2.17;;
34459;SDS011;20704;51.260;22.558;2022-08-25T14:42:06;7.18;;;2.00;;
34459;SDS011;20704;51.260;22.558;2022-08-25T14:44:33;15.73;;;1.67;;
34459;SDS011;20704;51.260;22.558;2022-08-25T14:46:59;7.82;;;3.15;;
34459;SDS011;20704;51.260;22.558;2022-08-25T14:49:28;5.80;;;1.92;;
34459;SDS011;20704;51.260;22.558;2022-08-25T14:54:55;9.27;;;2.17;;
34459;SDS011;20704;51.260;22.558;2022-08-25T14:57:23;13.35;;;2.17;;
34459;SDS011;20704;51.260;22.558;2022-08-25T14:59:50;4.78;;;1.23;;
34459;SDS011;20704;51.260;22.558;2022-08-25T15:02:20;10.88;;;1.90;;
34459;SDS011;20704;51.260;22.558;2022-08-25T15:04:50;5.63;;;1.25;;
34459;SDS011;20704;51.260;22.558;2022-08-25T15:07:20;6.20;;;1.60;;
34459;SDS011;20704;51.260;22.558;2022-08-25T15:10:22;3.40;;;1.38;;
34459;SDS011;20704;51.260;22.558;2022-08-25T15:12:51;8.40;;;1.48;;
34459;SDS011;20704;51.260;22.558;2022-08-25T15:15:18;5.65;;;1.80;;
34459;SDS011;20704;51.260;22.558;2022-08-25T15:17:45;4.00;;;2.13;;
34459;SDS011;20704;51.260;22.558;2022-08-25T15:20:13;5.88;;;1.63;;
34459;SDS011;20704;51.260;22.558;2022-08-25T15:22:39;11.27;;;2.55;;
34459;SDS011;20704;51.260;22.558;2022-08-25T15:25:05;9.38;;;2.97;;
34459;SDS011;20704;51.260;22.558;2022-08-25T15:27:32;12.27;;;1.85;;
34459;SDS011;20704;51.260;22.558;2022-08-25T15:29:58;7.07;;;1.92;;
34459;SDS011;20704;51.260;22.558;2022-08-25T15:32:25;6.28;;;2.03;;
34459;SDS011;20704;51.260;22.558;2022-08-25T15:34:52;9.50;;;1.63;;
34459;SDS011;20704;51.260;22.558;2022-08-25T15:37:18;7.35;;;1.77;;
34459;SDS011;20704;51.260;22.558;2022-08-25T15:39:45;6.30;;;1.80;;
34459;SDS011;20704;51.260;22.558;2022-08-25T15:42:13;6.30;;;1.77;;
34459;SDS011;20704;51.260;22.558;2022-08-25T15:44:41;7.03;;;1.40;;
34459;SDS011;20704;51.260;22.558;2022-08-25T15:47:07;5.15;;;2.20;;
34459;SDS011;20704;51.260;22.558;2022-08-25T15:49:34;5.05;;;1.60;;
34459;SDS011;20704;51.260;22.558;2022-08-25T15:52:01;3.92;;;2.00;;
34459;SDS011;20704;51.260;22.558;2022-08-25T15:54:27;12.30;;;1.30;;
34459;SDS011;20704;51.260;22.558;2022-08-25T15:56:55;4.57;;;1.90;;
34459;SDS011;20704;51.260;22.558;2022-08-25T15:59:21;6.30;;;1.33;;
34459;SDS011;20704;51.260;22.558;2022-08-25T16:01:48;5.22;;;1.40;;
34459;SDS011;20704;51.260;22.558;2022-08-25T16:04:18;7.97;;;1.60;;
34459;SDS011;20704;51.260;22.558;2022-08-25T16:06:45;8.70;;;2.20;;
34459;SDS011;20704;51.260;22.558;2022-08-25T16:09:11;11.57;;;2.58;;
34459;SDS011;20704;51.260;22.558;2022-08-25T16:11:38;4.75;;;1.45;;
34459;SDS011;20704;51.260;22.558;2022-08-25T16:14:07;11.70;;;1.60;;
34459;SDS011;20704;51.260;22.558;2022-08-25T16:16:33;8.20;;;1.67;;
34459;SDS011;20704;51.260;22.558;2022-08-25T16:19:01;10.32;;;1.58;;
34459;SDS011;20704;51.260;22.558;2022-08-25T16:21:28;5.47;;;1.70;;
34459;SDS011;20704;51.260;22.558;2022-08-25T16:23:57;11.10;;;2.72;;
34459;SDS011;20704;51.260;22.558;2022-08-25T16:26:24;6.18;;;2.63;;
34459;SDS011;20704;51.260;22.558;2022-08-25T16:28:51;12.13;;;2.67;;
34459;SDS011;20704;51.260;22.558;2022-08-25T16:31:17;8.48;;;1.55;;
34459;SDS011;20704;51.260;22.558;2022-08-25T16:33:45;6.00;;;1.98;;
34459;SDS011;20704;51.260;22.558;2022-08-25T16:36:14;10.48;;;2.08;;
34459;SDS011;20704;51.260;22.558;2022-08-25T16:38:43;5.75;;;2.10;;
34459;SDS011;20704;51.260;22.558;2022-08-25T16:41:11;6.35;;;1.67;;
34459;SDS011;20704;51.260;22.558;2022-08-25T16:43:40;6.32;;;1.65;;
34459;SDS011;20704;51.260;22.558;2022-08-25T16:46:07;8.88;;;1.50;;
34459;SDS011;20704;51.260;22.558;2022-08-25T16:48:36;8.93;;;1.73;;
34459;SDS011;20704;51.260;22.558;2022-08-25T16:51:07;7.40;;;1.67;;